sensor_id;sensor_type;location;lat;lon;timestamp;temperature;humidity
6654;DHT22;3363;50.942;7.034;2023-01-28T00:01:04;3.90;90.20
6654;DHT22;3363;50.942;7.034;2023-01-28T00:03:30;3.90;91.60
6654;DHT22;3363;50.942;7.034;2023-01-28T00:06:00;3.90;90.70
6654;DHT22;3363;50.942;7.034;2023-01-28T00:08:28;3.90;90.90
6654;DHT22;3363;50.942;7.034;2023-01-28T00:10:57;3.90;92.40
6654;DHT22;3363;50.942;7.034;2023-01-28T00:13:23;3.90;91.10
6654;DHT22;3363;50.942;7.034;2023-01-28T00:15:53;3.90;92.40
6654;DHT22;3363;50.942;7.034;2023-01-28T00:18:20;3.70;88.70
6654;DHT22;3363;50.942;7.034;2023-01-28T00:20:54;3.80;92.50
6654;DHT22;3363;50.942;7.034;2023-01-28T00:23:21;3.80;91.90
6654;DHT22;3363;50.942;7.034;2023-01-28T00:25:49;3.80;91.40
6654;DHT22;3363;50.942;7.034;2023-01-28T00:28:15;3.80;91.20
6654;DHT22;3363;50.942;7.034;2023-01-28T00:30:42;3.80;91.50
6654;DHT22;3363;50.942;7.034;2023-01-28T00:33:09;3.80;92.40
6654;DHT22;3363;50.942;7.034;2023-01-28T00:35:35;3.80;92.20
6654;DHT22;3363;50.942;7.034;2023-01-28T00:38:02;3.80;91.70
6654;DHT22;3363;50.942;7.034;2023-01-28T00:40:28;3.70;89.00
6654;DHT22;3363;50.942;7.034;2023-01-28T00:42:57;3.70;91.90
6654;DHT22;3363;50.942;7.034;2023-01-28T00:45:24;3.80;92.70
6654;DHT22;3363;50.942;7.034;2023-01-28T00:47:50;3.80;92.20
6654;DHT22;3363;50.942;7.034;2023-01-28T00:50:17;3.80;90.20
6654;DHT22;3363;50.942;7.034;2023-01-28T00:52:45;3.70;90.00
6654;DHT22;3363;50.942;7.034;2023-01-28T00:55:12;3.70;91.70
6654;DHT22;3363;50.942;7.034;2023-01-28T00:57:39;3.70;92.90
6654;DHT22;3363;50.942;7.034;2023-01-28T01:00:07;3.70;92.80
6654;DHT22;3363;50.942;7.034;2023-01-28T01:02:34;3.70;92.30
6654;DHT22;3363;50.942;7.034;2023-01-28T01:05:01;3.70;91.70
6654;DHT22;3363;50.942;7.034;2023-01-28T01:07:28;3.60;90.80
6654;DHT22;3363;50.942;7.034;2023-01-28T01:10:06;3.60;90.80
6654;DHT22;3363;50.942;7.034;2023-01-28T01:12:33;3.60;91.90
6654;DHT22;3363;50.942;7.034;2023-01-28T01:15:00;3.60;92.60
6654;DHT22;3363;50.942;7.034;2023-01-28T01:17:29;3.60;92.80
6654;DHT22;3363;50.942;7.034;2023-01-28T01:19:56;3.70;92.70
6654;DHT22;3363;50.942;7.034;2023-01-28T01:22:23;3.70;92.50
6654;DHT22;3363;50.942;7.034;2023-01-28T01:24:49;3.70;92.10
6654;DHT22;3363;50.942;7.034;2023-01-28T01:27:16;3.70;92.00
6654;DHT22;3363;50.942;7.034;2023-01-28T01:29:43;3.70;92.00
6654;DHT22;3363;50.942;7.034;2023-01-28T01:32:09;3.60;92.20
6654;DHT22;3363;50.942;7.034;2023-01-28T01:34:37;3.60;92.20
6654;DHT22;3363;50.942;7.034;2023-01-28T01:37:04;3.60;92.30
6654;DHT22;3363;50.942;7.034;2023-01-28T01:39:32;3.60;91.70
6654;DHT22;3363;50.942;7.034;2023-01-28T01:41:59;3.50;90.80
6654;DHT22;3363;50.942;7.034;2023-01-28T01:47:11;3.50;92.00
6654;DHT22;3363;50.942;7.034;2023-01-28T01:49:39;3.50;91.70
6654;DHT22;3363;50.942;7.034;2023-01-28T01:52:07;3.50;91.60
6654;DHT22;3363;50.942;7.034;2023-01-28T01:54:36;3.50;91.50
6654;DHT22;3363;50.942;7.034;2023-01-28T01:57:04;3.50;91.60
6654;DHT22;3363;50.942;7.034;2023-01-28T01:59:33;3.50;91.90
6654;DHT22;3363;50.942;7.034;2023-01-28T02:02:00;3.50;91.90
6654;DHT22;3363;50.942;7.034;2023-01-28T02:04:30;3.50;92.00
6654;DHT22;3363;50.942;7.034;2023-01-28T02:06:59;3.50;91.90
6654;DHT22;3363;50.942;7.034;2023-01-28T02:09:26;3.50;91.30
6654;DHT22;3363;50.942;7.034;2023-01-28T02:11:53;3.40;90.80
6654;DHT22;3363;50.942;7.034;2023-01-28T02:14:21;3.40;90.50
6654;DHT22;3363;50.942;7.034;2023-01-28T02:16:48;3.40;91.60
6654;DHT22;3363;50.942;7.034;2023-01-28T02:19:15;3.40;91.90
6654;DHT22;3363;50.942;7.034;2023-01-28T02:21:47;3.40;91.60
6654;DHT22;3363;50.942;7.034;2023-01-28T02:24:26;3.40;91.50
6654;DHT22;3363;50.942;7.034;2023-01-28T02:27:02;3.40;91.00
6654;DHT22;3363;50.942;7.034;2023-01-28T02:29:35;3.40;91.20
6654;DHT22;3363;50.942;7.034;2023-01-28T02:32:03;3.40;91.40
6654;DHT22;3363;50.942;7.034;2023-01-28T02:34:33;3.40;91.30
6654;DHT22;3363;50.942;7.034;2023-01-28T02:37:02;3.20;87.50
6654;DHT22;3363;50.942;7.034;2023-01-28T02:39:31;3.20;91.50
6654;DHT22;3363;50.942;7.034;2023-01-28T02:42:01;3.20;90.90
6654;DHT22;3363;50.942;7.034;2023-01-28T02:44:29;3.20;91.30
6654;DHT22;3363;50.942;7.034;2023-01-28T02:46:57;3.20;86.90
6654;DHT22;3363;50.942;7.034;2023-01-28T02:49:41;3.10;90.60
6654;DHT22;3363;50.942;7.034;2023-01-28T02:55:08;3.20;90.50
6654;DHT22;3363;50.942;7.034;2023-01-28T02:57:37;3.10;90.60
6654;DHT22;3363;50.942;7.034;2023-01-28T03:00:09;3.20;90.30
6654;DHT22;3363;50.942;7.034;2023-01-28T03:02:39;3.20;90.20
6654;DHT22;3363;50.942;7.034;2023-01-28T03:05:09;3.20;91.00
6654;DHT22;3363;50.942;7.034;2023-01-28T03:07:37;3.10;87.20
6654;DHT22;3363;50.942;7.034;2023-01-28T03:10:05;3.10;90.30
6654;DHT22;3363;50.942;7.034;2023-01-28T03:12:32;3.00;88.80
6654;DHT22;3363;50.942;7.034;2023-01-28T03:15:19;3.10;89.70
6654;DHT22;3363;50.942;7.034;2023-01-28T03:18:05;3.00;89.30
6654;DHT22;3363;50.942;7.034;2023-01-28T03:20:53;3.10;90.00
6654;DHT22;3363;50.942;7.034;2023-01-28T03:23:41;3.10;90.60
6654;DHT22;3363;50.942;7.034;2023-01-28T03:26:27;3.00;88.90
6654;DHT22;3363;50.942;7.034;2023-01-28T03:29:13;3.00;90.70
6654;DHT22;3363;50.942;7.034;2023-01-28T03:31:58;3.00;89.40
6654;DHT22;3363;50.942;7.034;2023-01-28T03:34:44;2.90;89.50
6654;DHT22;3363;50.942;7.034;2023-01-28T03:37:29;2.90;88.90
6654;DHT22;3363;50.942;7.034;2023-01-28T03:39:59;2.90;90.70
6654;DHT22;3363;50.942;7.034;2023-01-28T03:42:26;2.90;90.50
6654;DHT22;3363;50.942;7.034;2023-01-28T03:44:53;3.00;90.20
6654;DHT22;3363;50.942;7.034;2023-01-28T03:47:21;3.00;88.90
6654;DHT22;3363;50.942;7.034;2023-01-28T03:49:50;2.90;89.00
6654;DHT22;3363;50.942;7.034;2023-01-28T03:52:18;2.90;88.20
6654;DHT22;3363;50.942;7.034;2023-01-28T03:54:45;2.90;87.60
6654;DHT22;3363;50.942;7.034;2023-01-28T03:57:13;2.90;90.30
6654;DHT22;3363;50.942;7.034;2023-01-28T03:59:40;2.90;89.50
6654;DHT22;3363;50.942;7.034;2023-01-28T04:02:06;3.00;90.30
6654;DHT22;3363;50.942;7.034;2023-01-28T04:04:35;3.00;90.20
6654;DHT22;3363;50.942;7.034;2023-01-28T04:07:03;2.90;89.50
6654;DHT22;3363;50.942;7.034;2023-01-28T04:09:32;2.90;89.50
6654;DHT22;3363;50.942;7.034;2023-01-28T04:11:59;3.00;90.10
6654;DHT22;3363;50.942;7.034;2023-01-28T04:14:26;3.00;90.10
6654;DHT22;3363;50.942;7.034;2023-01-28T04:16:52;2.90;88.40
6654;DHT22;3363;50.942;7.034;2023-01-28T04:19:20;2.90;90.20
6654;DHT22;3363;50.942;7.034;2023-01-28T04:21:46;2.90;88.70
6654;DHT22;3363;50.942;7.034;2023-01-28T04:24:15;2.80;89.00
6654;DHT22;3363;50.942;7.034;2023-01-28T04:26:42;2.80;89.40
6654;DHT22;3363;50.942;7.034;2023-01-28T04:29:08;2.90;90.30
6654;DHT22;3363;50.942;7.034;2023-01-28T04:31:35;2.90;89.50
6654;DHT22;3363;50.942;7.034;2023-01-28T04:34:02;2.90;89.50
6654;DHT22;3363;50.942;7.034;2023-01-28T04:36:28;2.90;89.50
6654;DHT22;3363;50.942;7.034;2023-01-28T04:38:55;2.90;90.30
6654;DHT22;3363;50.942;7.034;2023-01-28T04:41:23;2.90;90.20
6654;DHT22;3363;50.942;7.034;2023-01-28T04:43:49;2.90;89.80
6654;DHT22;3363;50.942;7.034;2023-01-28T04:46:16;2.90;89.50
6654;DHT22;3363;50.942;7.034;2023-01-28T04:48:43;2.90;90.20
6654;DHT22;3363;50.942;7.034;2023-01-28T04:51:09;2.90;90.40
6654;DHT22;3363;50.942;7.034;2023-01-28T04:53:36;2.90;90.20
6654;DHT22;3363;50.942;7.034;2023-01-28T04:56:03;3.00;90.40
6654;DHT22;3363;50.942;7.034;2023-01-28T04:58:31;2.90;90.30
6654;DHT22;3363;50.942;7.034;2023-01-28T05:00:58;2.90;89.30
6654;DHT22;3363;50.942;7.034;2023-01-28T05:03:25;3.00;90.00
6654;DHT22;3363;50.942;7.034;2023-01-28T05:05:51;2.90;88.50
6654;DHT22;3363;50.942;7.034;2023-01-28T05:08:18;2.90;89.50
6654;DHT22;3363;50.942;7.034;2023-01-28T05:10:45;2.90;89.50
6654;DHT22;3363;50.942;7.034;2023-01-28T05:13:11;2.90;88.10
6654;DHT22;3363;50.942;7.034;2023-01-28T05:15:40;2.80;80.40
6654;DHT22;3363;50.942;7.034;2023-01-28T05:18:06;2.80;88.30
6654;DHT22;3363;50.942;7.034;2023-01-28T05:20:33;2.80;87.60
6654;DHT22;3363;50.942;7.034;2023-01-28T05:22:59;2.80;87.20
6654;DHT22;3363;50.942;7.034;2023-01-28T05:25:26;2.80;87.90
6654;DHT22;3363;50.942;7.034;2023-01-28T05:27:53;2.80;88.90
6654;DHT22;3363;50.942;7.034;2023-01-28T05:30:19;2.70;87.00
6654;DHT22;3363;50.942;7.034;2023-01-28T05:32:48;2.70;84.30
6654;DHT22;3363;50.942;7.034;2023-01-28T05:35:15;2.60;88.70
6654;DHT22;3363;50.942;7.034;2023-01-28T05:37:41;2.70;87.30
6654;DHT22;3363;50.942;7.034;2023-01-28T05:40:09;2.60;87.60
6654;DHT22;3363;50.942;7.034;2023-01-28T05:42:35;2.70;90.10
6654;DHT22;3363;50.942;7.034;2023-01-28T05:45:02;2.80;90.20
6654;DHT22;3363;50.942;7.034;2023-01-28T05:47:29;2.80;88.60
6654;DHT22;3363;50.942;7.034;2023-01-28T05:49:57;2.80;89.50
6654;DHT22;3363;50.942;7.034;2023-01-28T05:52:23;2.80;87.80
6654;DHT22;3363;50.942;7.034;2023-01-28T05:54:50;2.80;90.00
6654;DHT22;3363;50.942;7.034;2023-01-28T05:57:17;2.80;89.30
6654;DHT22;3363;50.942;7.034;2023-01-28T05:59:44;2.80;90.00
6654;DHT22;3363;50.942;7.034;2023-01-28T06:02:10;2.80;89.50
6654;DHT22;3363;50.942;7.034;2023-01-28T06:04:37;2.80;89.40
6654;DHT22;3363;50.942;7.034;2023-01-28T06:07:05;2.80;89.50
6654;DHT22;3363;50.942;7.034;2023-01-28T06:09:32;2.80;89.20
6654;DHT22;3363;50.942;7.034;2023-01-28T06:11:58;2.70;87.80
6654;DHT22;3363;50.942;7.034;2023-01-28T06:14:25;2.70;89.40
6654;DHT22;3363;50.942;7.034;2023-01-28T06:16:52;2.70;89.20
6654;DHT22;3363;50.942;7.034;2023-01-28T06:19:18;2.70;88.40
6654;DHT22;3363;50.942;7.034;2023-01-28T06:21:45;2.70;90.20
6654;DHT22;3363;50.942;7.034;2023-01-28T06:24:13;2.80;90.00
6654;DHT22;3363;50.942;7.034;2023-01-28T06:26:39;2.80;87.60
6654;DHT22;3363;50.942;7.034;2023-01-28T06:29:06;2.70;88.70
6654;DHT22;3363;50.942;7.034;2023-01-28T06:31:33;2.70;87.30
6654;DHT22;3363;50.942;7.034;2023-01-28T06:34:00;2.70;89.70
6654;DHT22;3363;50.942;7.034;2023-01-28T06:36:26;2.80;90.20
6654;DHT22;3363;50.942;7.034;2023-01-28T06:38:53;2.80;90.10
6654;DHT22;3363;50.942;7.034;2023-01-28T06:41:21;2.80;89.90
6654;DHT22;3363;50.942;7.034;2023-01-28T06:43:48;2.80;89.80
6654;DHT22;3363;50.942;7.034;2023-01-28T06:46:14;2.80;89.50
6654;DHT22;3363;50.942;7.034;2023-01-28T06:48:41;2.80;88.10
6654;DHT22;3363;50.942;7.034;2023-01-28T06:51:07;2.80;89.40
6654;DHT22;3363;50.942;7.034;2023-01-28T06:53:34;2.80;89.50
6654;DHT22;3363;50.942;7.034;2023-01-28T06:56:01;2.80;87.80
6654;DHT22;3363;50.942;7.034;2023-01-28T06:58:29;2.70;85.00
6654;DHT22;3363;50.942;7.034;2023-01-28T07:00:55;2.70;87.80
6654;DHT22;3363;50.942;7.034;2023-01-28T07:03:22;2.70;88.30
6654;DHT22;3363;50.942;7.034;2023-01-28T07:05:49;2.60;83.60
6654;DHT22;3363;50.942;7.034;2023-01-28T07:08:15;2.60;83.50
6654;DHT22;3363;50.942;7.034;2023-01-28T07:10:42;2.60;88.20
6654;DHT22;3363;50.942;7.034;2023-01-28T07:13:09;2.70;88.60
6654;DHT22;3363;50.942;7.034;2023-01-28T07:15:37;2.70;88.20
6654;DHT22;3363;50.942;7.034;2023-01-28T07:18:04;2.70;89.40
6654;DHT22;3363;50.942;7.034;2023-01-28T07:20:30;2.80;88.80
6654;DHT22;3363;50.942;7.034;2023-01-28T07:22:57;2.80;89.40
6654;DHT22;3363;50.942;7.034;2023-01-28T07:25:24;2.70;87.30
6654;DHT22;3363;50.942;7.034;2023-01-28T07:27:51;2.70;86.30
6654;DHT22;3363;50.942;7.034;2023-01-28T07:30:18;2.60;86.60
6654;DHT22;3363;50.942;7.034;2023-01-28T07:32:51;2.70;88.00
6654;DHT22;3363;50.942;7.034;2023-01-28T07:35:17;2.70;87.80
6654;DHT22;3363;50.942;7.034;2023-01-28T07:37:49;2.70;85.70
6654;DHT22;3363;50.942;7.034;2023-01-28T07:40:16;2.70;86.00
6654;DHT22;3363;50.942;7.034;2023-01-28T07:42:42;2.70;85.90
6654;DHT22;3363;50.942;7.034;2023-01-28T07:45:09;2.60;83.30
6654;DHT22;3363;50.942;7.034;2023-01-28T07:47:36;2.50;81.80
6654;DHT22;3363;50.942;7.034;2023-01-28T07:50:04;2.50;83.00
6654;DHT22;3363;50.942;7.034;2023-01-28T07:52:31;2.50;85.90
6654;DHT22;3363;50.942;7.034;2023-01-28T07:55:02;2.60;84.90
6654;DHT22;3363;50.942;7.034;2023-01-28T07:57:29;2.60;77.70
6654;DHT22;3363;50.942;7.034;2023-01-28T07:59:55;2.60;81.20
6654;DHT22;3363;50.942;7.034;2023-01-28T08:02:22;2.60;82.80
6654;DHT22;3363;50.942;7.034;2023-01-28T08:04:49;2.60;84.30
6654;DHT22;3363;50.942;7.034;2023-01-28T08:07:17;2.60;74.40
6654;DHT22;3363;50.942;7.034;2023-01-28T08:09:43;2.50;77.30
6654;DHT22;3363;50.942;7.034;2023-01-28T08:12:10;2.60;81.90
6654;DHT22;3363;50.942;7.034;2023-01-28T08:14:36;2.70;84.00
6654;DHT22;3363;50.942;7.034;2023-01-28T08:17:03;2.60;81.70
6654;DHT22;3363;50.942;7.034;2023-01-28T08:19:30;2.70;83.70
6654;DHT22;3363;50.942;7.034;2023-01-28T08:21:56;2.70;85.20
6654;DHT22;3363;50.942;7.034;2023-01-28T08:24:24;2.70;83.70
6654;DHT22;3363;50.942;7.034;2023-01-28T08:26:51;2.70;81.90
6654;DHT22;3363;50.942;7.034;2023-01-28T08:29:18;2.70;82.30
6654;DHT22;3363;50.942;7.034;2023-01-28T08:31:44;2.70;82.40
6654;DHT22;3363;50.942;7.034;2023-01-28T08:34:11;2.60;79.60
6654;DHT22;3363;50.942;7.034;2023-01-28T08:36:38;2.60;75.40
6654;DHT22;3363;50.942;7.034;2023-01-28T08:39:04;2.50;70.60
6654;DHT22;3363;50.942;7.034;2023-01-28T08:41:32;2.50;76.50
6654;DHT22;3363;50.942;7.034;2023-01-28T08:43:59;2.60;81.40
6654;DHT22;3363;50.942;7.034;2023-01-28T08:46:25;2.70;81.40
6654;DHT22;3363;50.942;7.034;2023-01-28T08:48:52;2.70;80.20
6654;DHT22;3363;50.942;7.034;2023-01-28T08:51:19;2.80;81.70
6654;DHT22;3363;50.942;7.034;2023-01-28T08:53:45;2.80;79.10
6654;DHT22;3363;50.942;7.034;2023-01-28T08:56:12;2.70;78.70
6654;DHT22;3363;50.942;7.034;2023-01-28T08:58:41;2.80;80.20
6654;DHT22;3363;50.942;7.034;2023-01-28T09:01:07;2.80;80.90
6654;DHT22;3363;50.942;7.034;2023-01-28T09:03:34;2.80;80.70
6654;DHT22;3363;50.942;7.034;2023-01-28T09:06:01;2.80;79.30
6654;DHT22;3363;50.942;7.034;2023-01-28T09:08:28;2.70;79.00
6654;DHT22;3363;50.942;7.034;2023-01-28T09:10:54;2.80;79.70
6654;DHT22;3363;50.942;7.034;2023-01-28T09:13:21;2.80;80.20
6654;DHT22;3363;50.942;7.034;2023-01-28T09:15:50;2.80;80.80
6654;DHT22;3363;50.942;7.034;2023-01-28T09:18:17;2.80;79.90
6654;DHT22;3363;50.942;7.034;2023-01-28T09:20:44;2.80;79.40
6654;DHT22;3363;50.942;7.034;2023-01-28T09:23:10;2.80;79.50
6654;DHT22;3363;50.942;7.034;2023-01-28T09:25:37;2.80;78.10
6654;DHT22;3363;50.942;7.034;2023-01-28T09:28:04;2.80;80.10
6654;DHT22;3363;50.942;7.034;2023-01-28T09:30:30;2.80;78.30
6654;DHT22;3363;50.942;7.034;2023-01-28T09:32:58;2.80;77.50
6654;DHT22;3363;50.942;7.034;2023-01-28T09:35:25;2.70;73.20
6654;DHT22;3363;50.942;7.034;2023-01-28T09:37:55;2.70;76.50
6654;DHT22;3363;50.942;7.034;2023-01-28T09:40:24;2.70;75.70
6654;DHT22;3363;50.942;7.034;2023-01-28T09:42:58;2.80;76.90
6654;DHT22;3363;50.942;7.034;2023-01-28T09:45:28;2.70;72.90
6654;DHT22;3363;50.942;7.034;2023-01-28T09:48:00;2.80;76.30
6654;DHT22;3363;50.942;7.034;2023-01-28T09:50:30;2.80;75.40
6654;DHT22;3363;50.942;7.034;2023-01-28T09:52:59;2.80;76.70
6654;DHT22;3363;50.942;7.034;2023-01-28T09:55:29;2.80;75.10
6654;DHT22;3363;50.942;7.034;2023-01-28T09:57:56;2.80;75.10
6654;DHT22;3363;50.942;7.034;2023-01-28T10:00:24;2.80;76.50
6654;DHT22;3363;50.942;7.034;2023-01-28T10:02:57;2.90;75.30
6654;DHT22;3363;50.942;7.034;2023-01-28T10:05:30;2.70;68.70
6654;DHT22;3363;50.942;7.034;2023-01-28T10:08:00;2.60;70.40
6654;DHT22;3363;50.942;7.034;2023-01-28T10:10:31;2.50;68.70
6654;DHT22;3363;50.942;7.034;2023-01-28T10:13:06;2.50;68.50
6654;DHT22;3363;50.942;7.034;2023-01-28T10:18:32;2.50;70.40
6654;DHT22;3363;50.942;7.034;2023-01-28T10:21:04;2.50;66.00
6654;DHT22;3363;50.942;7.034;2023-01-28T10:23:34;2.50;67.90
6654;DHT22;3363;50.942;7.034;2023-01-28T10:26:08;2.50;70.00
6654;DHT22;3363;50.942;7.034;2023-01-28T10:28:37;2.60;69.10
6654;DHT22;3363;50.942;7.034;2023-01-28T10:31:09;2.60;69.10
6654;DHT22;3363;50.942;7.034;2023-01-28T10:33:37;2.60;70.70
6654;DHT22;3363;50.942;7.034;2023-01-28T10:36:06;2.50;66.20
6654;DHT22;3363;50.942;7.034;2023-01-28T10:38:34;2.50;66.10
6654;DHT22;3363;50.942;7.034;2023-01-28T10:41:02;2.50;66.40
6654;DHT22;3363;50.942;7.034;2023-01-28T10:43:29;2.50;66.00
6654;DHT22;3363;50.942;7.034;2023-01-28T10:45:57;2.50;67.10
6654;DHT22;3363;50.942;7.034;2023-01-28T10:48:28;2.50;65.10
6654;DHT22;3363;50.942;7.034;2023-01-28T10:50:56;2.50;66.20
6654;DHT22;3363;50.942;7.034;2023-01-28T10:53:34;2.60;70.00
6654;DHT22;3363;50.942;7.034;2023-01-28T10:56:01;2.70;68.10
6654;DHT22;3363;50.942;7.034;2023-01-28T10:58:29;2.70;71.60
6654;DHT22;3363;50.942;7.034;2023-01-28T11:00:56;2.70;70.30
6654;DHT22;3363;50.942;7.034;2023-01-28T11:03:24;2.70;66.30
6654;DHT22;3363;50.942;7.034;2023-01-28T11:05:53;2.70;71.30
6654;DHT22;3363;50.942;7.034;2023-01-28T11:08:21;2.70;70.30
6654;DHT22;3363;50.942;7.034;2023-01-28T11:10:49;2.60;66.30
6654;DHT22;3363;50.942;7.034;2023-01-28T11:13:17;2.60;66.70
6654;DHT22;3363;50.942;7.034;2023-01-28T11:15:47;2.60;70.30
6654;DHT22;3363;50.942;7.034;2023-01-28T11:18:16;2.50;64.90
6654;DHT22;3363;50.942;7.034;2023-01-28T11:20:48;2.50;66.70
6654;DHT22;3363;50.942;7.034;2023-01-28T11:23:17;2.50;67.60
6654;DHT22;3363;50.942;7.034;2023-01-28T11:25:44;2.60;68.00
6654;DHT22;3363;50.942;7.034;2023-01-28T11:28:14;2.60;71.50
6654;DHT22;3363;50.942;7.034;2023-01-28T11:30:43;2.70;72.90
6654;DHT22;3363;50.942;7.034;2023-01-28T11:33:16;2.80;72.00
6654;DHT22;3363;50.942;7.034;2023-01-28T11:35:51;2.80;68.30
6654;DHT22;3363;50.942;7.034;2023-01-28T11:38:19;2.80;68.70
6654;DHT22;3363;50.942;7.034;2023-01-28T11:40:49;2.70;64.70
6654;DHT22;3363;50.942;7.034;2023-01-28T11:43:17;2.70;69.70
6654;DHT22;3363;50.942;7.034;2023-01-28T11:45:48;2.70;70.60
6654;DHT22;3363;50.942;7.034;2023-01-28T11:48:20;2.70;69.00
6654;DHT22;3363;50.942;7.034;2023-01-28T11:50:51;2.70;68.30
6654;DHT22;3363;50.942;7.034;2023-01-28T11:53:26;2.60;66.30
6654;DHT22;3363;50.942;7.034;2023-01-28T11:56:04;2.60;67.30
6654;DHT22;3363;50.942;7.034;2023-01-28T11:58:38;2.50;66.30
6654;DHT22;3363;50.942;7.034;2023-01-28T12:01:11;2.60;67.70
6654;DHT22;3363;50.942;7.034;2023-01-28T12:03:44;2.70;70.00
6654;DHT22;3363;50.942;7.034;2023-01-28T12:06:19;2.70;70.70
6654;DHT22;3363;50.942;7.034;2023-01-28T12:08:49;2.80;69.90
6654;DHT22;3363;50.942;7.034;2023-01-28T12:11:21;2.80;70.50
6654;DHT22;3363;50.942;7.034;2023-01-28T12:14:15;2.80;70.50
6654;DHT22;3363;50.942;7.034;2023-01-28T12:16:49;2.80;69.30
6654;DHT22;3363;50.942;7.034;2023-01-28T12:19:21;2.70;69.20
6654;DHT22;3363;50.942;7.034;2023-01-28T12:22:15;2.70;67.00
6654;DHT22;3363;50.942;7.034;2023-01-28T12:24:49;2.70;68.70
6654;DHT22;3363;50.942;7.034;2023-01-28T12:27:29;2.80;69.30
6654;DHT22;3363;50.942;7.034;2023-01-28T12:30:03;2.80;66.40
6654;DHT22;3363;50.942;7.034;2023-01-28T12:32:38;2.80;68.10
6654;DHT22;3363;50.942;7.034;2023-01-28T12:35:21;2.80;69.60
6654;DHT22;3363;50.942;7.034;2023-01-28T12:37:54;2.90;69.50
6654;DHT22;3363;50.942;7.034;2023-01-28T12:40:32;2.90;70.60
6654;DHT22;3363;50.942;7.034;2023-01-28T12:43:04;2.90;71.60
6654;DHT22;3363;50.942;7.034;2023-01-28T12:45:36;2.90;70.30
6654;DHT22;3363;50.942;7.034;2023-01-28T12:48:06;2.90;70.60
6654;DHT22;3363;50.942;7.034;2023-01-28T12:50:35;2.90;70.50
6654;DHT22;3363;50.942;7.034;2023-01-28T12:53:13;2.90;70.90
6654;DHT22;3363;50.942;7.034;2023-01-28T12:55:44;2.90;67.90
6654;DHT22;3363;50.942;7.034;2023-01-28T12:58:14;2.90;70.60
6654;DHT22;3363;50.942;7.034;2023-01-28T13:00:44;2.90;68.90
6654;DHT22;3363;50.942;7.034;2023-01-28T13:03:13;2.80;67.20
6654;DHT22;3363;50.942;7.034;2023-01-28T13:05:43;2.80;66.40
6654;DHT22;3363;50.942;7.034;2023-01-28T13:08:12;2.80;68.20
6654;DHT22;3363;50.942;7.034;2023-01-28T13:10:41;2.90;68.30
6654;DHT22;3363;50.942;7.034;2023-01-28T13:13:12;2.90;68.10
6654;DHT22;3363;50.942;7.034;2023-01-28T13:15:41;3.00;69.40
6654;DHT22;3363;50.942;7.034;2023-01-28T13:20:51;3.00;66.20
6654;DHT22;3363;50.942;7.034;2023-01-28T13:23:22;2.90;63.50
6654;DHT22;3363;50.942;7.034;2023-01-28T13:25:50;2.90;66.20
6654;DHT22;3363;50.942;7.034;2023-01-28T13:28:27;2.90;65.30
6654;DHT22;3363;50.942;7.034;2023-01-28T13:30:59;3.00;68.20
6654;DHT22;3363;50.942;7.034;2023-01-28T13:33:29;3.00;67.80
6654;DHT22;3363;50.942;7.034;2023-01-28T13:35:57;3.00;68.20
6654;DHT22;3363;50.942;7.034;2023-01-28T13:38:27;3.00;68.00
6654;DHT22;3363;50.942;7.034;2023-01-28T13:40:55;3.10;68.40
6654;DHT22;3363;50.942;7.034;2023-01-28T13:43:25;2.90;60.50
6654;DHT22;3363;50.942;7.034;2023-01-28T13:45:56;2.80;65.10
6654;DHT22;3363;50.942;7.034;2023-01-28T13:48:25;2.90;63.50
6654;DHT22;3363;50.942;7.034;2023-01-28T13:50:55;2.90;64.30
6654;DHT22;3363;50.942;7.034;2023-01-28T13:53:27;3.00;67.90
6654;DHT22;3363;50.942;7.034;2023-01-28T13:55:59;2.90;63.40
6654;DHT22;3363;50.942;7.034;2023-01-28T13:58:35;2.90;64.00
6654;DHT22;3363;50.942;7.034;2023-01-28T14:01:15;3.00;65.30
6654;DHT22;3363;50.942;7.034;2023-01-28T14:09:11;3.20;67.60
6654;DHT22;3363;50.942;7.034;2023-01-28T14:11:48;3.00;62.50
6654;DHT22;3363;50.942;7.034;2023-01-28T14:14:38;2.90;63.10
6654;DHT22;3363;50.942;7.034;2023-01-28T14:17:09;3.00;67.30
6654;DHT22;3363;50.942;7.034;2023-01-28T14:19:42;3.10;66.70
6654;DHT22;3363;50.942;7.034;2023-01-28T14:22:12;3.10;66.60
6654;DHT22;3363;50.942;7.034;2023-01-28T14:24:43;3.20;65.70
6654;DHT22;3363;50.942;7.034;2023-01-28T14:27:11;3.20;64.60
6654;DHT22;3363;50.942;7.034;2023-01-28T14:29:50;3.20;66.70
6654;DHT22;3363;50.942;7.034;2023-01-28T14:32:25;3.20;63.40
6654;DHT22;3363;50.942;7.034;2023-01-28T14:34:52;3.20;66.70
6654;DHT22;3363;50.942;7.034;2023-01-28T14:37:21;3.20;65.70
6654;DHT22;3363;50.942;7.034;2023-01-28T14:39:51;3.10;65.20
6654;DHT22;3363;50.942;7.034;2023-01-28T14:42:19;3.10;66.70
6654;DHT22;3363;50.942;7.034;2023-01-28T14:44:47;3.10;67.30
6654;DHT22;3363;50.942;7.034;2023-01-28T14:47:22;3.20;67.20
6654;DHT22;3363;50.942;7.034;2023-01-28T14:49:58;3.10;64.70
6654;DHT22;3363;50.942;7.034;2023-01-28T14:52:35;3.20;67.80
6654;DHT22;3363;50.942;7.034;2023-01-28T14:55:10;3.10;63.00
6654;DHT22;3363;50.942;7.034;2023-01-28T14:57:43;3.00;63.90
6654;DHT22;3363;50.942;7.034;2023-01-28T15:00:17;3.10;67.50
6654;DHT22;3363;50.942;7.034;2023-01-28T15:02:44;3.10;65.80
6654;DHT22;3363;50.942;7.034;2023-01-28T15:05:14;3.00;66.00
6654;DHT22;3363;50.942;7.034;2023-01-28T15:07:42;3.00;66.60
6654;DHT22;3363;50.942;7.034;2023-01-28T15:10:15;3.00;65.80
6654;DHT22;3363;50.942;7.034;2023-01-28T15:12:43;2.90;66.30
6654;DHT22;3363;50.942;7.034;2023-01-28T15:15:14;2.90;66.50
6654;DHT22;3363;50.942;7.034;2023-01-28T15:17:43;2.90;62.90
6654;DHT22;3363;50.942;7.034;2023-01-28T15:20:14;2.90;66.50
6654;DHT22;3363;50.942;7.034;2023-01-28T15:22:41;2.70;62.50
6654;DHT22;3363;50.942;7.034;2023-01-28T15:25:15;2.80;68.00
6654;DHT22;3363;50.942;7.034;2023-01-28T15:27:42;2.90;68.70
6654;DHT22;3363;50.942;7.034;2023-01-28T15:30:17;2.80;65.30
6654;DHT22;3363;50.942;7.034;2023-01-28T15:32:43;2.80;67.30
6654;DHT22;3363;50.942;7.034;2023-01-28T15:35:10;2.80;69.60
6654;DHT22;3363;50.942;7.034;2023-01-28T15:37:38;2.90;69.20
6654;DHT22;3363;50.942;7.034;2023-01-28T15:40:05;2.90;69.00
6654;DHT22;3363;50.942;7.034;2023-01-28T15:42:34;2.90;69.10
6654;DHT22;3363;50.942;7.034;2023-01-28T15:45:03;2.90;69.30
6654;DHT22;3363;50.942;7.034;2023-01-28T15:47:30;2.90;69.60
6654;DHT22;3363;50.942;7.034;2023-01-28T15:49:58;2.90;69.50
6654;DHT22;3363;50.942;7.034;2023-01-28T15:52:28;2.90;69.90
6654;DHT22;3363;50.942;7.034;2023-01-28T15:54:55;2.90;69.80
6654;DHT22;3363;50.942;7.034;2023-01-28T15:57:24;2.80;69.80
6654;DHT22;3363;50.942;7.034;2023-01-28T16:00:03;2.80;70.10
6654;DHT22;3363;50.942;7.034;2023-01-28T16:02:40;2.80;70.20
6654;DHT22;3363;50.942;7.034;2023-01-28T16:05:22;2.80;70.40
6654;DHT22;3363;50.942;7.034;2023-01-28T16:07:49;2.80;70.40
6654;DHT22;3363;50.942;7.034;2023-01-28T16:10:18;2.80;70.40
6654;DHT22;3363;50.942;7.034;2023-01-28T16:12:47;2.80;70.40
6654;DHT22;3363;50.942;7.034;2023-01-28T16:15:17;2.80;70.40
6654;DHT22;3363;50.942;7.034;2023-01-28T16:17:45;2.70;70.40
6654;DHT22;3363;50.942;7.034;2023-01-28T16:20:18;2.70;70.30
6654;DHT22;3363;50.942;7.034;2023-01-28T16:22:46;2.70;70.30
6654;DHT22;3363;50.942;7.034;2023-01-28T16:25:23;2.70;70.30
6654;DHT22;3363;50.942;7.034;2023-01-28T16:27:50;2.70;70.40
6654;DHT22;3363;50.942;7.034;2023-01-28T16:30:18;2.70;70.60
6654;DHT22;3363;50.942;7.034;2023-01-28T16:32:45;2.70;70.60
6654;DHT22;3363;50.942;7.034;2023-01-28T16:35:13;2.60;70.70
6654;DHT22;3363;50.942;7.034;2023-01-28T16:37:40;2.60;70.90
6654;DHT22;3363;50.942;7.034;2023-01-28T16:40:07;2.60;70.80
6654;DHT22;3363;50.942;7.034;2023-01-28T16:42:34;2.60;70.80
6654;DHT22;3363;50.942;7.034;2023-01-28T16:45:01;2.60;70.80
6654;DHT22;3363;50.942;7.034;2023-01-28T16:47:29;2.50;70.20